sensor_id;sensor_type;location;lat;lon;timestamp;pressure;altitude;pressure_sealevel;temperature;humidity
31538;BME280;18147;51.952;6.146;2022-09-03T00:01:16;101122.34;;;16.25;61.39
31538;BME280;18147;51.952;6.146;2022-09-03T00:03:51;101123.94;;;16.16;61.70
31538;BME280;18147;51.952;6.146;2022-09-03T00:06:44;101124.97;;;16.04;62.72
31538;BME280;18147;51.952;6.146;2022-09-03T00:09:18;101119.34;;;16.07;62.62
31538;BME280;18147;51.952;6.146;2022-09-03T00:11:49;101109.94;;;16.01;62.48
31538;BME280;18147;51.952;6.146;2022-09-03T00:14:24;101121.44;;;15.92;63.17
31538;BME280;18147;51.952;6.146;2022-09-03T00:16:58;101108.22;;;16.00;62.71
31538;BME280;18147;51.952;6.146;2022-09-03T00:19:31;101114.22;;;15.93;63.09
31538;BME280;18147;51.952;6.146;2022-09-03T00:22:02;101114.94;;;15.95;63.52
31538;BME280;18147;51.952;6.146;2022-09-03T00:24:37;101115.56;;;15.98;62.74
31538;BME280;18147;51.952;6.146;2022-09-03T00:27:06;101111.66;;;16.02;62.61
31538;BME280;18147;51.952;6.146;2022-09-03T00:29:38;101112.41;;;15.93;62.84
31538;BME280;18147;51.952;6.146;2022-09-03T00:32:11;101114.34;;;15.91;63.08
31538;BME280;18147;51.952;6.146;2022-09-03T00:34:40;101113.00;;;15.86;63.44
31538;BME280;18147;51.952;6.146;2022-09-03T00:37:08;101109.09;;;15.90;63.04
31538;BME280;18147;51.952;6.146;2022-09-03T00:39:35;101116.94;;;15.82;63.53
31538;BME280;18147;51.952;6.146;2022-09-03T00:45:13;101120.00;;;15.77;63.65
31538;BME280;18147;51.952;6.146;2022-09-03T00:48:04;101119.63;;;15.70;63.86
31538;BME280;18147;51.952;6.146;2022-09-03T00:50:46;101115.38;;;15.68;64.23
31538;BME280;18147;51.952;6.146;2022-09-03T00:53:27;101113.28;;;15.71;63.76
31538;BME280;18147;51.952;6.146;2022-09-03T00:56:12;101109.56;;;15.61;64.54
31538;BME280;18147;51.952;6.146;2022-09-03T00:59:10;101111.91;;;15.66;64.38
31538;BME280;18147;51.952;6.146;2022-09-03T01:02:06;101110.34;;;15.63;64.39
31538;BME280;18147;51.952;6.146;2022-09-03T01:15:33;101108.50;;;15.52;65.21
31538;BME280;18147;51.952;6.146;2022-09-03T01:21:24;101105.56;;;15.44;65.37
31538;BME280;18147;51.952;6.146;2022-09-03T01:29:27;101116.94;;;15.37;65.94
31538;BME280;18147;51.952;6.146;2022-09-03T01:32:26;101114.34;;;15.35;65.92
31538;BME280;18147;51.952;6.146;2022-09-03T01:43:37;101118.25;;;15.31;65.90
31538;BME280;18147;51.952;6.146;2022-09-03T01:46:18;101113.00;;;15.18;66.59
31538;BME280;18147;51.952;6.146;2022-09-03T01:48:52;101115.75;;;15.06;67.32
31538;BME280;18147;51.952;6.146;2022-09-03T01:51:29;101115.91;;;15.15;66.78
31538;BME280;18147;51.952;6.146;2022-09-03T01:59:51;101115.53;;;15.09;66.98
31538;BME280;18147;51.952;6.146;2022-09-03T02:02:25;101112.34;;;14.92;68.17
31538;BME280;18147;51.952;6.146;2022-09-03T02:07:47;101115.63;;;14.96;67.68
31538;BME280;18147;51.952;6.146;2022-09-03T02:10:16;101115.03;;;14.92;67.70
31538;BME280;18147;51.952;6.146;2022-09-03T02:12:47;101120.13;;;14.95;67.18
31538;BME280;18147;51.952;6.146;2022-09-03T02:15:16;101112.84;;;14.97;67.09
31538;BME280;18147;51.952;6.146;2022-09-03T02:17:44;101122.94;;;14.94;67.31
31538;BME280;18147;51.952;6.146;2022-09-03T02:20:17;101119.91;;;14.87;67.67
31538;BME280;18147;51.952;6.146;2022-09-03T02:22:44;101125.13;;;14.77;68.21
31538;BME280;18147;51.952;6.146;2022-09-03T02:25:11;101117.28;;;14.74;68.21
31538;BME280;18147;51.952;6.146;2022-09-03T02:27:37;101116.81;;;14.81;67.79
31538;BME280;18147;51.952;6.146;2022-09-03T02:30:04;101117.28;;;14.74;68.27
31538;BME280;18147;51.952;6.146;2022-09-03T02:32:30;101111.41;;;14.69;68.33
31538;BME280;18147;51.952;6.146;2022-09-03T02:34:56;101120.06;;;14.62;68.81
31538;BME280;18147;51.952;6.146;2022-09-03T02:37:22;101117.13;;;14.65;68.54
31538;BME280;18147;51.952;6.146;2022-09-03T02:39:48;101115.41;;;14.64;68.65
31538;BME280;18147;51.952;6.146;2022-09-03T02:42:14;101110.53;;;14.58;69.21
31538;BME280;18147;51.952;6.146;2022-09-03T02:44:49;101114.19;;;14.57;69.13
31538;BME280;18147;51.952;6.146;2022-09-03T02:47:17;101121.47;;;14.55;69.71
31538;BME280;18147;51.952;6.146;2022-09-03T02:49:46;101121.41;;;14.43;69.88
31538;BME280;18147;51.952;6.146;2022-09-03T02:52:12;101121.41;;;14.43;69.72
31538;BME280;18147;51.952;6.146;2022-09-03T02:54:38;101116.09;;;14.31;72.16
31538;BME280;18147;51.952;6.146;2022-09-03T02:57:22;101116.38;;;14.39;70.11
31538;BME280;18147;51.952;6.146;2022-09-03T02:59:47;101112.84;;;14.38;69.99
31538;BME280;18147;51.952;6.146;2022-09-03T03:02:13;101117.00;;;14.42;69.83
31538;BME280;18147;51.952;6.146;2022-09-03T03:04:38;101117.47;;;14.36;69.89
31538;BME280;18147;51.952;6.146;2022-09-03T03:07:05;101115.00;;;14.33;70.46
31538;BME280;18147;51.952;6.146;2022-09-03T03:09:31;101113.34;;;14.19;71.39
31538;BME280;18147;51.952;6.146;2022-09-03T03:11:56;101108.13;;;14.18;71.05
31538;BME280;18147;51.952;6.146;2022-09-03T03:14:22;101108.13;;;14.18;71.46
31538;BME280;18147;51.952;6.146;2022-09-03T03:16:48;101105.56;;;14.16;71.26
31538;BME280;18147;51.952;6.146;2022-09-03T03:19:14;101103.72;;;14.17;71.24
31538;BME280;18147;51.952;6.146;2022-09-03T03:21:39;101097.94;;;14.10;71.34
31538;BME280;18147;51.952;6.146;2022-09-03T03:24:05;101103.03;;;14.02;71.83
31538;BME280;18147;51.952;6.146;2022-09-03T03:26:31;101099.88;;;14.08;71.41
31538;BME280;18147;51.952;6.146;2022-09-03T03:28:58;101094.34;;;13.98;73.50
31538;BME280;18147;51.952;6.146;2022-09-03T03:31:25;101098.31;;;14.06;72.11
31538;BME280;18147;51.952;6.146;2022-09-03T03:33:57;101097.34;;;14.07;71.40
31538;BME280;18147;51.952;6.146;2022-09-03T03:36:24;101095.06;;;14.00;72.76
31538;BME280;18147;51.952;6.146;2022-09-03T03:38:53;101103.03;;;14.02;72.05
31538;BME280;18147;51.952;6.146;2022-09-03T03:41:21;101110.09;;;14.03;71.81
31538;BME280;18147;51.952;6.146;2022-09-03T03:43:47;101102.22;;;13.89;74.48
31538;BME280;18147;51.952;6.146;2022-09-03T03:46:13;101109.06;;;13.93;73.73
31538;BME280;18147;51.952;6.146;2022-09-03T03:48:41;101103.69;;;13.93;72.73
31538;BME280;18147;51.952;6.146;2022-09-03T03:51:08;101100.19;;;13.80;74.51
31538;BME280;18147;51.952;6.146;2022-09-03T03:53:35;101106.41;;;13.80;73.74
31538;BME280;18147;51.952;6.146;2022-09-03T03:56:04;101106.66;;;13.77;72.92
31538;BME280;18147;51.952;6.146;2022-09-03T03:58:31;101103.13;;;13.77;75.11
31538;BME280;18147;51.952;6.146;2022-09-03T04:03:29;101105.16;;;13.60;75.73
31538;BME280;18147;51.952;6.146;2022-09-03T04:05:56;101111.94;;;13.66;74.39
31538;BME280;18147;51.952;6.146;2022-09-03T04:08:23;101103.25;;;13.62;77.20
31538;BME280;18147;51.952;6.146;2022-09-03T04:10:48;101106.06;;;13.35;78.66
31538;BME280;18147;51.952;6.146;2022-09-03T04:13:14;101109.81;;;13.33;79.73
31538;BME280;18147;51.952;6.146;2022-09-03T04:15:39;101109.81;;;13.33;78.84
31538;BME280;18147;51.952;6.146;2022-09-03T04:18:06;101105.19;;;13.35;77.19
31538;BME280;18147;51.952;6.146;2022-09-03T04:20:34;101103.38;;;13.35;77.78
31538;BME280;18147;51.952;6.146;2022-09-03T04:22:59;101103.91;;;13.15;78.64
31538;BME280;18147;51.952;6.146;2022-09-03T04:25:25;101099.75;;;13.24;77.01
31538;BME280;18147;51.952;6.146;2022-09-03T04:27:51;101093.66;;;13.21;76.40
31538;BME280;18147;51.952;6.146;2022-09-03T04:30:17;101096.50;;;13.18;77.43
31538;BME280;18147;51.952;6.146;2022-09-03T04:32:42;101092.91;;;13.32;75.75
31538;BME280;18147;51.952;6.146;2022-09-03T04:35:18;101090.97;;;13.21;77.28
31538;BME280;18147;51.952;6.146;2022-09-03T04:37:45;101091.53;;;13.27;76.33
31538;BME280;18147;51.952;6.146;2022-09-03T04:40:11;101084.66;;;13.23;77.50
31538;BME280;18147;51.952;6.146;2022-09-03T04:42:36;101094.94;;;13.29;77.29
31538;BME280;18147;51.952;6.146;2022-09-03T04:45:02;101096.41;;;13.07;79.08
31538;BME280;18147;51.952;6.146;2022-09-03T04:47:27;101094.38;;;13.11;77.61
31538;BME280;18147;51.952;6.146;2022-09-03T04:49:53;101099.63;;;12.87;83.05
31538;BME280;18147;51.952;6.146;2022-09-03T04:52:19;101095.97;;;12.88;81.35
31538;BME280;18147;51.952;6.146;2022-09-03T04:54:45;101096.50;;;12.80;82.82
31538;BME280;18147;51.952;6.146;2022-09-03T04:57:10;101095.13;;;12.87;80.71
31538;BME280;18147;51.952;6.146;2022-09-03T04:59:35;101096.41;;;12.94;79.13
31538;BME280;18147;51.952;6.146;2022-09-03T05:02:01;101089.34;;;13.06;77.94
31538;BME280;18147;51.952;6.146;2022-09-03T05:04:27;101095.56;;;12.81;81.57
31538;BME280;18147;51.952;6.146;2022-09-03T05:06:52;101095.75;;;12.78;82.45
31538;BME280;18147;51.952;6.146;2022-09-03T05:09:18;101101.66;;;12.96;79.89
31538;BME280;18147;51.952;6.146;2022-09-03T05:11:44;101091.34;;;12.77;81.68
31538;BME280;18147;51.952;6.146;2022-09-03T05:14:09;101096.50;;;12.93;80.69
31538;BME280;18147;51.952;6.146;2022-09-03T05:16:37;101090.06;;;12.70;82.97
31538;BME280;18147;51.952;6.146;2022-09-03T05:19:03;101090.81;;;12.85;80.42
31538;BME280;18147;51.952;6.146;2022-09-03T05:21:30;101090.19;;;12.94;79.63
31538;BME280;18147;51.952;6.146;2022-09-03T05:23:57;101089.75;;;13.00;80.68
31538;BME280;18147;51.952;6.146;2022-09-03T05:26:28;101091.03;;;12.94;81.98
31538;BME280;18147;51.952;6.146;2022-09-03T05:28:59;101098.22;;;12.94;81.15
31538;BME280;18147;51.952;6.146;2022-09-03T05:31:26;101096.22;;;13.10;79.93
31538;BME280;18147;51.952;6.146;2022-09-03T05:33:54;101096.09;;;13.25;80.57
31538;BME280;18147;51.952;6.146;2022-09-03T05:36:23;101091.72;;;13.24;78.48
31538;BME280;18147;51.952;6.146;2022-09-03T05:38:49;101091.47;;;13.52;77.26
31538;BME280;18147;51.952;6.146;2022-09-03T05:41:16;101094.91;;;13.54;77.54
31538;BME280;18147;51.952;6.146;2022-09-03T05:43:42;101099.81;;;13.60;77.61
31538;BME280;18147;51.952;6.146;2022-09-03T05:46:13;101098.94;;;13.60;79.11
31538;BME280;18147;51.952;6.146;2022-09-03T05:48:40;101098.16;;;13.83;76.60
31538;BME280;18147;51.952;6.146;2022-09-03T05:51:16;101101.28;;;13.77;76.63
31538;BME280;18147;51.952;6.146;2022-09-03T05:53:44;101097.84;;;13.75;77.81
31538;BME280;18147;51.952;6.146;2022-09-03T05:56:12;101096.31;;;13.96;76.71
31538;BME280;18147;51.952;6.146;2022-09-03T05:58:42;101096.50;;;13.93;77.92
31538;BME280;18147;51.952;6.146;2022-09-03T06:03:45;101099.44;;;14.14;76.96
31538;BME280;18147;51.952;6.146;2022-09-03T06:06:11;101103.91;;;14.27;74.07
31538;BME280;18147;51.952;6.146;2022-09-03T06:08:38;101102.00;;;14.40;73.74
31538;BME280;18147;51.952;6.146;2022-09-03T06:11:04;101104.25;;;14.46;73.44
31538;BME280;18147;51.952;6.146;2022-09-03T06:13:30;101091.53;;;14.72;71.91
31538;BME280;18147;51.952;6.146;2022-09-03T06:16:01;101096.31;;;14.80;71.33
31538;BME280;18147;51.952;6.146;2022-09-03T06:18:27;101095.72;;;14.87;71.45
31538;BME280;18147;51.952;6.146;2022-09-03T06:21:11;101092.56;;;14.93;71.71
31538;BME280;18147;51.952;6.146;2022-09-03T06:23:36;101101.84;;;15.00;72.14
31538;BME280;18147;51.952;6.146;2022-09-03T06:26:04;101097.84;;;15.17;71.92
31538;BME280;18147;51.952;6.146;2022-09-03T06:28:31;101099.47;;;15.42;71.21
31538;BME280;18147;51.952;6.146;2022-09-03T06:30:59;101099.34;;;15.77;69.25
31538;BME280;18147;51.952;6.146;2022-09-03T06:33:27;101090.56;;;16.19;68.02
31538;BME280;18147;51.952;6.146;2022-09-03T06:35:56;101090.69;;;16.49;66.58
31538;BME280;18147;51.952;6.146;2022-09-03T06:38:29;101089.56;;;16.84;63.81
31538;BME280;18147;51.952;6.146;2022-09-03T06:41:01;101091.59;;;17.13;63.28
31538;BME280;18147;51.952;6.146;2022-09-03T06:43:29;101092.59;;;17.52;61.35
31538;BME280;18147;51.952;6.146;2022-09-03T06:45:56;101094.88;;;17.56;60.01
31538;BME280;18147;51.952;6.146;2022-09-03T06:48:22;101092.91;;;17.89;58.65
31538;BME280;18147;51.952;6.146;2022-09-03T06:50:55;101085.66;;;17.90;58.83
31538;BME280;18147;51.952;6.146;2022-09-03T06:53:26;101091.25;;;18.36;57.56
31538;BME280;18147;51.952;6.146;2022-09-03T06:56:03;101084.31;;;18.63;57.09
31538;BME280;18147;51.952;6.146;2022-09-03T06:58:31;101081.03;;;18.59;56.30
31538;BME280;18147;51.952;6.146;2022-09-03T07:01:04;101081.31;;;18.85;56.33
31538;BME280;18147;51.952;6.146;2022-09-03T07:03:34;101082.16;;;18.86;55.94
31538;BME280;18147;51.952;6.146;2022-09-03T07:06:08;101086.75;;;19.23;55.43
31538;BME280;18147;51.952;6.146;2022-09-03T07:08:34;101088.91;;;19.94;55.27
31538;BME280;18147;51.952;6.146;2022-09-03T07:11:04;101091.75;;;19.55;54.29
31538;BME280;18147;51.952;6.146;2022-09-03T07:13:33;101092.59;;;19.65;54.39
31538;BME280;18147;51.952;6.146;2022-09-03T07:16:04;101090.88;;;19.27;55.03
31538;BME280;18147;51.952;6.146;2022-09-03T07:18:31;101083.63;;;19.64;54.10
31538;BME280;18147;51.952;6.146;2022-09-03T07:20:58;101087.03;;;19.57;54.75
31538;BME280;18147;51.952;6.146;2022-09-03T07:23:24;101091.00;;;20.00;53.30
31538;BME280;18147;51.952;6.146;2022-09-03T07:25:58;101083.50;;;20.29;52.42
31538;BME280;18147;51.952;6.146;2022-09-03T07:28:25;101086.41;;;20.00;53.31
31538;BME280;18147;51.952;6.146;2022-09-03T07:30:51;101087.94;;;20.48;52.73
31538;BME280;18147;51.952;6.146;2022-09-03T07:33:17;101093.66;;;20.63;52.13
31538;BME280;18147;51.952;6.146;2022-09-03T07:35:44;101086.63;;;20.70;52.42
31538;BME280;18147;51.952;6.146;2022-09-03T07:38:09;101090.00;;;20.72;52.07
31538;BME280;18147;51.952;6.146;2022-09-03T07:40:36;101091.94;;;20.80;51.68
31538;BME280;18147;51.952;6.146;2022-09-03T07:43:04;101086.16;;;20.75;50.91
31538;BME280;18147;51.952;6.146;2022-09-03T07:45:30;101077.34;;;21.25;50.81
31538;BME280;18147;51.952;6.146;2022-09-03T07:47:58;101082.59;;;21.00;50.08
31538;BME280;18147;51.952;6.146;2022-09-03T07:50:24;101080.59;;;21.62;50.11
31538;BME280;18147;51.952;6.146;2022-09-03T07:52:55;101080.50;;;21.88;48.68
31538;BME280;18147;51.952;6.146;2022-09-03T07:55:21;101081.44;;;22.05;49.26
31538;BME280;18147;51.952;6.146;2022-09-03T07:57:46;101083.28;;;21.28;50.17
31538;BME280;18147;51.952;6.146;2022-09-03T08:00:12;101091.16;;;21.13;50.64
31538;BME280;18147;51.952;6.146;2022-09-03T08:02:38;101076.63;;;21.23;49.19
31538;BME280;18147;51.952;6.146;2022-09-03T08:05:04;101086.56;;;21.32;49.19
31538;BME280;18147;51.952;6.146;2022-09-03T08:07:30;101078.91;;;21.61;49.01
31538;BME280;18147;51.952;6.146;2022-09-03T08:09:55;101077.63;;;22.40;48.91
31538;BME280;18147;51.952;6.146;2022-09-03T08:12:21;101079.97;;;22.19;49.35
31538;BME280;18147;51.952;6.146;2022-09-03T08:14:47;101074.53;;;22.27;48.55
31538;BME280;18147;51.952;6.146;2022-09-03T08:17:12;101075.44;;;21.85;48.04
31538;BME280;18147;51.952;6.146;2022-09-03T08:19:38;101081.56;;;21.95;49.13
31538;BME280;18147;51.952;6.146;2022-09-03T08:22:05;101078.13;;;22.68;48.65
31538;BME280;18147;51.952;6.146;2022-09-03T08:26:58;101076.34;;;22.10;47.46
31538;BME280;18147;51.952;6.146;2022-09-03T08:29:25;101075.41;;;22.52;47.00
31538;BME280;18147;51.952;6.146;2022-09-03T08:31:51;101083.13;;;22.06;46.90
31538;BME280;18147;51.952;6.146;2022-09-03T08:34:17;101084.94;;;21.89;48.35
31538;BME280;18147;51.952;6.146;2022-09-03T08:36:44;101084.22;;;22.30;48.19
31538;BME280;18147;51.952;6.146;2022-09-03T08:39:11;101090.34;;;22.48;47.99
31538;BME280;18147;51.952;6.146;2022-09-03T08:47:05;101081.66;;;22.20;48.38
31538;BME280;18147;51.952;6.146;2022-09-03T08:49:44;101086.75;;;22.15;47.84
31538;BME280;18147;51.952;6.146;2022-09-03T08:52:20;101082.78;;;22.01;47.68
31538;BME280;18147;51.952;6.146;2022-09-03T08:54:48;101083.31;;;22.13;47.39
31538;BME280;18147;51.952;6.146;2022-09-03T08:57:18;101087.59;;;22.23;47.65
31538;BME280;18147;51.952;6.146;2022-09-03T08:59:45;101093.16;;;22.14;47.21
31538;BME280;18147;51.952;6.146;2022-09-03T09:02:38;101088.44;;;22.16;49.79
31538;BME280;18147;51.952;6.146;2022-09-03T09:05:11;101085.41;;;22.43;47.41
31538;BME280;18147;51.952;6.146;2022-09-03T09:10:22;101091.53;;;22.62;46.85
31538;BME280;18147;51.952;6.146;2022-09-03T09:12:57;101084.75;;;22.58;47.95
31538;BME280;18147;51.952;6.146;2022-09-03T09:23:32;101085.44;;;23.00;47.44
31538;BME280;18147;51.952;6.146;2022-09-03T09:26:03;101083.56;;;22.93;47.29
31538;BME280;18147;51.952;6.146;2022-09-03T09:28:35;101079.63;;;22.87;46.66
31538;BME280;18147;51.952;6.146;2022-09-03T09:31:04;101072.84;;;23.16;46.26
31538;BME280;18147;51.952;6.146;2022-09-03T09:33:32;101073.53;;;23.02;46.88
31538;BME280;18147;51.952;6.146;2022-09-03T09:36:04;101077.94;;;23.03;46.01
31538;BME280;18147;51.952;6.146;2022-09-03T09:38:32;101062.81;;;23.64;45.48
31538;BME280;18147;51.952;6.146;2022-09-03T09:41:14;101076.34;;;23.33;45.72
31538;BME280;18147;51.952;6.146;2022-09-03T09:43:41;101065.97;;;23.28;45.38
31538;BME280;18147;51.952;6.146;2022-09-03T09:46:21;101068.91;;;23.74;46.59
31538;BME280;18147;51.952;6.146;2022-09-03T09:48:50;101072.94;;;23.86;44.77
31538;BME280;18147;51.952;6.146;2022-09-03T09:51:22;101079.88;;;23.89;46.68
31538;BME280;18147;51.952;6.146;2022-09-03T09:54:02;101074.13;;;23.84;48.34
31538;BME280;18147;51.952;6.146;2022-09-03T09:56:29;101080.81;;;23.73;44.95
31538;BME280;18147;51.952;6.146;2022-09-03T09:59:02;101071.41;;;23.84;44.41
31538;BME280;18147;51.952;6.146;2022-09-03T10:01:28;101074.81;;;23.86;46.75
31538;BME280;18147;51.952;6.146;2022-09-03T10:03:58;101071.31;;;23.69;44.50
31538;BME280;18147;51.952;6.146;2022-09-03T10:06:26;101060.50;;;24.15;45.43
31538;BME280;18147;51.952;6.146;2022-09-03T10:09:22;101050.31;;;24.09;44.39
31538;BME280;18147;51.952;6.146;2022-09-03T10:11:49;101065.19;;;23.59;45.36
31538;BME280;18147;51.952;6.146;2022-09-03T10:14:44;101063.66;;;23.64;44.14
31538;BME280;18147;51.952;6.146;2022-09-03T10:19:51;101064.84;;;23.70;44.82
31538;BME280;18147;51.952;6.146;2022-09-03T10:22:43;101060.66;;;23.90;44.02
31538;BME280;18147;51.952;6.146;2022-09-03T10:25:14;101058.31;;;24.10;44.14
31538;BME280;18147;51.952;6.146;2022-09-03T10:27:40;101063.94;;;24.09;44.70
31538;BME280;18147;51.952;6.146;2022-09-03T10:30:11;101057.91;;;24.21;43.96
31538;BME280;18147;51.952;6.146;2022-09-03T10:33:09;101063.06;;;24.16;44.07
31538;BME280;18147;51.952;6.146;2022-09-03T10:35:42;101064.16;;;24.53;44.17
31538;BME280;18147;51.952;6.146;2022-09-03T10:38:24;101062.03;;;24.63;43.76
31538;BME280;18147;51.952;6.146;2022-09-03T10:46:16;101052.66;;;24.66;43.48
31538;BME280;18147;51.952;6.146;2022-09-03T10:51:34;101046.75;;;24.77;43.60
31538;BME280;18147;51.952;6.146;2022-09-03T10:54:26;101049.66;;;24.75;42.94
31538;BME280;18147;51.952;6.146;2022-09-03T10:59:58;101040.47;;;24.91;44.32
31538;BME280;18147;51.952;6.146;2022-09-03T11:02:37;101044.38;;;25.12;43.80
31538;BME280;18147;51.952;6.146;2022-09-03T11:05:38;101046.78;;;24.92;43.30
31538;BME280;18147;51.952;6.146;2022-09-03T11:08:11;101038.53;;;25.15;44.09
31538;BME280;18147;51.952;6.146;2022-09-03T11:10:41;101046.06;;;25.13;42.60
31538;BME280;18147;51.952;6.146;2022-09-03T11:13:16;101050.69;;;25.12;42.44
31538;BME280;18147;51.952;6.146;2022-09-03T11:18:31;101047.69;;;24.84;42.63
31538;BME280;18147;51.952;6.146;2022-09-03T11:21:03;101047.91;;;24.97;43.70
31538;BME280;18147;51.952;6.146;2022-09-03T11:23:36;101048.59;;;24.62;43.09
31538;BME280;18147;51.952;6.146;2022-09-03T11:26:10;101049.56;;;24.84;43.23
31538;BME280;18147;51.952;6.146;2022-09-03T11:34:42;101037.19;;;25.55;43.75
31538;BME280;18147;51.952;6.146;2022-09-03T11:37:20;101026.00;;;25.05;42.62
31538;BME280;18147;51.952;6.146;2022-09-03T11:42:39;101025.25;;;25.56;43.75
31538;BME280;18147;51.952;6.146;2022-09-03T11:47:51;101019.06;;;25.18;42.23
31538;BME280;18147;51.952;6.146;2022-09-03T11:52:47;101011.97;;;25.53;42.87
31538;BME280;18147;51.952;6.146;2022-09-03T11:55:45;101025.13;;;25.79;43.84
31538;BME280;18147;51.952;6.146;2022-09-03T11:58:31;101024.22;;;25.93;43.76
31538;BME280;18147;51.952;6.146;2022-09-03T12:01:00;101026.19;;;25.99;41.62
31538;BME280;18147;51.952;6.146;2022-09-03T12:03:47;101029.47;;;25.58;41.88
31538;BME280;18147;51.952;6.146;2022-09-03T12:14:56;101015.94;;;25.36;42.21
31538;BME280;18147;51.952;6.146;2022-09-03T12:17:21;101021.75;;;25.47;42.09
31538;BME280;18147;51.952;6.146;2022-09-03T12:19:53;101013.03;;;25.22;43.36
31538;BME280;18147;51.952;6.146;2022-09-03T12:22:20;101020.50;;;25.65;43.88
31538;BME280;18147;51.952;6.146;2022-09-03T12:24:46;101018.44;;;25.67;43.06
31538;BME280;18147;51.952;6.146;2022-09-03T12:27:24;101016.84;;;25.57;43.04
31538;BME280;18147;51.952;6.146;2022-09-03T12:29:54;101017.75;;;26.16;45.03
31538;BME280;18147;51.952;6.146;2022-09-03T12:32:26;101012.72;;;25.98;42.84
31538;BME280;18147;51.952;6.146;2022-09-03T12:34:53;101024.66;;;26.12;43.97
31538;BME280;18147;51.952;6.146;2022-09-03T12:37:21;101021.66;;;26.06;43.03
31538;BME280;18147;51.952;6.146;2022-09-03T12:39:55;101010.13;;;26.11;42.39
31538;BME280;18147;51.952;6.146;2022-09-03T12:42:29;101011.81;;;25.91;42.32
31538;BME280;18147;51.952;6.146;2022-09-03T12:44:55;101004.59;;;26.47;42.65
31538;BME280;18147;51.952;6.146;2022-09-03T12:47:29;101003.09;;;26.02;42.61
31538;BME280;18147;51.952;6.146;2022-09-03T12:50:06;101004.13;;;26.22;43.09
31538;BME280;18147;51.952;6.146;2022-09-03T12:52:36;101010.25;;;26.03;42.27
31538;BME280;18147;51.952;6.146;2022-09-03T13:00:24;101000.69;;;26.14;44.95
31538;BME280;18147;51.952;6.146;2022-09-03T13:03:28;101001.47;;;26.29;42.45
31538;BME280;18147;51.952;6.146;2022-09-03T13:06:01;101000.31;;;26.17;43.76
31538;BME280;18147;51.952;6.146;2022-09-03T13:08:34;100998.13;;;26.33;42.52
31538;BME280;18147;51.952;6.146;2022-09-03T13:11:04;100999.72;;;26.21;43.34
31538;BME280;18147;51.952;6.146;2022-09-03T13:13:32;101007.97;;;26.06;43.15
31538;BME280;18147;51.952;6.146;2022-09-03T13:32:08;100991.00;;;26.60;42.61
31538;BME280;18147;51.952;6.146;2022-09-03T13:34:41;101001.50;;;26.35;41.25
31538;BME280;18147;51.952;6.146;2022-09-03T13:39:42;100993.72;;;26.32;42.68
31538;BME280;18147;51.952;6.146;2022-09-03T13:44:54;100991.53;;;26.43;41.96
31538;BME280;18147;51.952;6.146;2022-09-03T13:47:30;100996.31;;;26.62;42.17
31538;BME280;18147;51.952;6.146;2022-09-03T13:50:17;100987.19;;;26.55;41.15
31538;BME280;18147;51.952;6.146;2022-09-03T14:01:05;100985.13;;;26.57;43.31
31538;BME280;18147;51.952;6.146;2022-09-03T14:03:43;100983.63;;;26.82;41.84
31538;BME280;18147;51.952;6.146;2022-09-03T14:06:36;100982.28;;;26.72;41.09
31538;BME280;18147;51.952;6.146;2022-09-03T14:12:41;100986.81;;;26.58;40.49
31538;BME280;18147;51.952;6.146;2022-09-03T14:15:21;100989.31;;;26.81;42.63
31538;BME280;18147;51.952;6.146;2022-09-03T14:20:46;100975.53;;;27.02;42.50
31538;BME280;18147;51.952;6.146;2022-09-03T14:26:04;100998.41;;;26.95;41.61
31538;BME280;18147;51.952;6.146;2022-09-03T14:28:34;100991.03;;;27.17;43.26
31538;BME280;18147;51.952;6.146;2022-09-03T14:41:37;100976.91;;;27.20;43.94
31538;BME280;18147;51.952;6.146;2022-09-03T14:44:32;100991.47;;;26.64;40.55
31538;BME280;18147;51.952;6.146;2022-09-03T15:00:07;100984.66;;;26.81;40.82
31538;BME280;18147;51.952;6.146;2022-09-03T15:10:49;100981.88;;;26.75;41.47
31538;BME280;18147;51.952;6.146;2022-09-03T15:19:09;100982.03;;;26.67;41.08
31538;BME280;18147;51.952;6.146;2022-09-03T15:21:53;100976.31;;;26.62;41.62
31538;BME280;18147;51.952;6.146;2022-09-03T15:24:42;100980.47;;;26.85;41.33
31538;BME280;18147;51.952;6.146;2022-09-03T15:27:19;100978.94;;;26.76;40.88
31538;BME280;18147;51.952;6.146;2022-09-03T15:30:03;100976.56;;;26.67;40.17
31538;BME280;18147;51.952;6.146;2022-09-03T15:32:47;100972.06;;;26.87;40.29
31538;BME280;18147;51.952;6.146;2022-09-03T15:37:58;100989.94;;;26.83;41.84
31538;BME280;18147;51.952;6.146;2022-09-03T15:40:31;100988.75;;;26.64;40.99
31538;BME280;18147;51.952;6.146;2022-09-03T15:43:25;100984.72;;;26.95;41.10
31538;BME280;18147;51.952;6.146;2022-09-03T15:46:11;100994.31;;;26.77;42.10
31538;BME280;18147;51.952;6.146;2022-09-03T15:49:01;100987.59;;;26.80;42.17
31538;BME280;18147;51.952;6.146;2022-09-03T15:51:32;100988.25;;;26.82;41.32
31538;BME280;18147;51.952;6.146;2022-09-03T15:54:19;100983.31;;;26.71;43.48
31538;BME280;18147;51.952;6.146;2022-09-03T15:56:54;100981.81;;;26.96;43.01
31538;BME280;18147;51.952;6.146;2022-09-03T15:59:56;100992.03;;;26.81;43.40
31538;BME280;18147;51.952;6.146;2022-09-03T16:02:32;100998.25;;;26.68;43.44
31538;BME280;18147;51.952;6.146;2022-09-03T16:12:39;101002.34;;;26.51;43.52
31538;BME280;18147;51.952;6.146;2022-09-03T16:15:18;100994.38;;;26.56;44.60
31538;BME280;18147;51.952;6.146;2022-09-03T16:21:03;100992.78;;;26.68;44.90
31538;BME280;18147;51.952;6.146;2022-09-03T16:23:39;100994.88;;;26.66;43.88
31538;BME280;18147;51.952;6.146;2022-09-03T16:29:05;101000.53;;;26.65;42.89
31538;BME280;18147;51.952;6.146;2022-09-03T16:31:43;100994.31;;;26.49;44.08
31538;BME280;18147;51.952;6.146;2022-09-03T16:37:27;101003.53;;;26.05;45.35